sensor_id;sensor_type;location;lat;lon;timestamp;pressure;altitude;pressure_sealevel;temperature;humidity
4022;BME280;2025;48.260;16.432;2022-08-23T00:02:10;99313.34;;;16.04;100.00
4022;BME280;2025;48.260;16.432;2022-08-23T00:04:39;99323.81;;;16.09;100.00
4022;BME280;2025;48.260;16.432;2022-08-23T00:07:10;99318.66;;;16.02;100.00
4022;BME280;2025;48.260;16.432;2022-08-23T00:09:38;99328.97;;;16.15;100.00
4022;BME280;2025;48.260;16.432;2022-08-23T00:12:09;99328.03;;;16.17;100.00
4022;BME280;2025;48.260;16.432;2022-08-23T00:14:40;99333.31;;;16.17;100.00
4022;BME280;2025;48.260;16.432;2022-08-23T00:17:08;99325.56;;;16.10;100.00
4022;BME280;2025;48.260;16.432;2022-08-23T00:19:36;99325.50;;;16.13;100.00
4022;BME280;2025;48.260;16.432;2022-08-23T00:22:04;99337.75;;;16.17;100.00
4022;BME280;2025;48.260;16.432;2022-08-23T00:24:34;99335.13;;;16.15;100.00
4022;BME280;2025;48.260;16.432;2022-08-23T00:27:03;99331.66;;;16.13;100.00
4022;BME280;2025;48.260;16.432;2022-08-23T00:29:35;99335.13;;;16.15;100.00
4022;BME280;2025;48.260;16.432;2022-08-23T00:32:03;99333.38;;;16.14;100.00
4022;BME280;2025;48.260;16.432;2022-08-23T00:34:30;99323.84;;;16.07;100.00
4022;BME280;2025;48.260;16.432;2022-08-23T00:36:57;99320.28;;;16.10;100.00
4022;BME280;2025;48.260;16.432;2022-08-23T00:39:24;99328.09;;;16.14;100.00
4022;BME280;2025;48.260;16.432;2022-08-23T00:41:56;99327.16;;;16.17;100.00
4022;BME280;2025;48.260;16.432;2022-08-23T00:44:25;99323.63;;;16.18;100.00
4022;BME280;2025;48.260;16.432;2022-08-23T00:47:13;99319.13;;;16.23;100.00
4022;BME280;2025;48.260;16.432;2022-08-23T00:50:03;99314.13;;;16.09;100.00
4022;BME280;2025;48.260;16.432;2022-08-23T00:52:36;99314.91;;;16.13;100.00
4022;BME280;2025;48.260;16.432;2022-08-23T00:55:05;99314.91;;;16.13;100.00
4022;BME280;2025;48.260;16.432;2022-08-23T00:57:34;99321.88;;;16.17;100.00
4022;BME280;2025;48.260;16.432;2022-08-23T01:00:04;99320.97;;;16.18;100.00
4022;BME280;2025;48.260;16.432;2022-08-23T01:02:31;99327.13;;;16.18;100.00
4022;BME280;2025;48.260;16.432;2022-08-23T01:04:58;99335.94;;;16.19;100.00
4022;BME280;2025;48.260;16.432;2022-08-23T01:07:45;99329.69;;;16.23;100.00
4022;BME280;2025;48.260;16.432;2022-08-23T01:10:17;99336.72;;;16.24;100.00
4022;BME280;2025;48.260;16.432;2022-08-23T01:12:53;99331.50;;;16.21;100.00
4022;BME280;2025;48.260;16.432;2022-08-23T01:15:25;99324.47;;;16.20;100.00
4022;BME280;2025;48.260;16.432;2022-08-23T01:17:58;99336.00;;;16.16;100.00
4022;BME280;2025;48.260;16.432;2022-08-23T01:20:31;99325.31;;;16.22;100.00
4022;BME280;2025;48.260;16.432;2022-08-23T01:23:04;99326.25;;;16.18;100.00
4022;BME280;2025;48.260;16.432;2022-08-23T01:25:36;99317.47;;;16.17;100.00
4022;BME280;2025;48.260;16.432;2022-08-23T01:28:03;99331.63;;;16.15;100.00
4022;BME280;2025;48.260;16.432;2022-08-23T01:30:31;99320.19;;;16.14;100.00
4022;BME280;2025;48.260;16.432;2022-08-23T01:33:01;99320.16;;;16.16;100.00
4022;BME280;2025;48.260;16.432;2022-08-23T01:35:33;99325.50;;;16.13;100.00
4022;BME280;2025;48.260;16.432;2022-08-23T01:38:02;99325.44;;;16.16;100.00
4022;BME280;2025;48.260;16.432;2022-08-23T01:40:30;99320.25;;;16.11;100.00
4022;BME280;2025;48.260;16.432;2022-08-23T01:42:59;99314.03;;;16.14;100.00
4022;BME280;2025;48.260;16.432;2022-08-23T01:45:28;99319.34;;;16.12;100.00
4022;BME280;2025;48.260;16.432;2022-08-23T01:47:55;99314.22;;;16.04;100.00
4022;BME280;2025;48.260;16.432;2022-08-23T01:50:23;99309.75;;;16.07;100.00
4022;BME280;2025;48.260;16.432;2022-08-23T01:52:50;99312.53;;;16.00;100.00
4022;BME280;2025;48.260;16.432;2022-08-23T01:55:18;99315.94;;;16.06;100.00
4022;BME280;2025;48.260;16.432;2022-08-23T01:57:48;99315.25;;;15.96;100.00
4022;BME280;2025;48.260;16.432;2022-08-23T02:00:20;99313.53;;;15.95;100.00
4022;BME280;2025;48.260;16.432;2022-08-23T02:02:48;99316.19;;;15.93;100.00
4022;BME280;2025;48.260;16.432;2022-08-23T02:05:17;99308.34;;;15.90;100.00
4022;BME280;2025;48.260;16.432;2022-08-23T02:07:44;99312.88;;;15.84;100.00
4022;BME280;2025;48.260;16.432;2022-08-23T02:10:11;99311.94;;;15.86;100.00
4022;BME280;2025;48.260;16.432;2022-08-23T02:12:39;99322.50;;;15.86;100.00
4022;BME280;2025;48.260;16.432;2022-08-23T02:15:06;99317.31;;;15.82;100.00
4022;BME280;2025;48.260;16.432;2022-08-23T02:17:35;99319.88;;;15.86;100.00
4022;BME280;2025;48.260;16.432;2022-08-23T02:20:03;99318.19;;;15.82;100.00
4022;BME280;2025;48.260;16.432;2022-08-23T02:22:31;99319.09;;;15.81;100.00
4022;BME280;2025;48.260;16.432;2022-08-23T02:24:59;99321.69;;;15.83;100.00
4022;BME280;2025;48.260;16.432;2022-08-23T02:27:26;99332.28;;;15.81;100.00
4022;BME280;2025;48.260;16.432;2022-08-23T02:29:53;99327.00;;;15.81;100.00
4022;BME280;2025;48.260;16.432;2022-08-23T02:32:20;99333.19;;;15.80;100.00
4022;BME280;2025;48.260;16.432;2022-08-23T02:34:48;99333.19;;;15.80;100.00
4022;BME280;2025;48.260;16.432;2022-08-23T02:37:16;99335.00;;;15.78;100.00
4022;BME280;2025;48.260;16.432;2022-08-23T02:39:43;99336.78;;;15.76;100.00
4022;BME280;2025;48.260;16.432;2022-08-23T02:42:10;99335.91;;;15.76;100.00
4022;BME280;2025;48.260;16.432;2022-08-23T02:44:38;99334.13;;;15.78;100.00
4022;BME280;2025;48.260;16.432;2022-08-23T02:47:06;99338.56;;;15.76;100.00
4022;BME280;2025;48.260;16.432;2022-08-23T02:49:34;99344.66;;;15.79;100.00
4022;BME280;2025;48.260;16.432;2022-08-23T02:52:04;99338.50;;;15.79;100.00
4022;BME280;2025;48.260;16.432;2022-08-23T02:54:32;99346.44;;;15.79;100.00
4022;BME280;2025;48.260;16.432;2022-08-23T02:56:59;99343.81;;;15.77;100.00
4022;BME280;2025;48.260;16.432;2022-08-23T02:59:26;99343.81;;;15.77;100.00
4022;BME280;2025;48.260;16.432;2022-08-23T03:01:53;99342.06;;;15.76;100.00
4022;BME280;2025;48.260;16.432;2022-08-23T03:04:20;99354.41;;;15.76;100.00
4022;BME280;2025;48.260;16.432;2022-08-23T03:06:47;99353.47;;;15.80;100.00
4022;BME280;2025;48.260;16.432;2022-08-23T03:09:16;99356.06;;;15.81;100.00
4022;BME280;2025;48.260;16.432;2022-08-23T03:11:44;99343.88;;;15.74;100.00
4022;BME280;2025;48.260;16.432;2022-08-23T03:14:12;99349.97;;;15.78;100.00
4022;BME280;2025;48.260;16.432;2022-08-23T03:16:39;99350.81;;;15.80;100.00
4022;BME280;2025;48.260;16.432;2022-08-23T03:19:06;99349.03;;;15.80;100.00
4022;BME280;2025;48.260;16.432;2022-08-23T03:21:33;99350.84;;;15.78;100.00
4022;BME280;2025;48.260;16.432;2022-08-23T03:24:01;99355.22;;;15.79;100.00
4022;BME280;2025;48.260;16.432;2022-08-23T03:26:29;99349.03;;;15.80;100.00
4022;BME280;2025;48.260;16.432;2022-08-23T03:28:56;99349.06;;;15.79;100.00
4022;BME280;2025;48.260;16.432;2022-08-23T03:31:23;99351.75;;;15.77;100.00
4022;BME280;2025;48.260;16.432;2022-08-23T03:33:51;99348.16;;;15.80;100.00
4022;BME280;2025;48.260;16.432;2022-08-23T03:36:18;99344.66;;;15.79;100.00
4022;BME280;2025;48.260;16.432;2022-08-23T03:38:46;99350.84;;;15.78;100.00
4022;BME280;2025;48.260;16.432;2022-08-23T03:41:13;99345.56;;;15.78;100.00
4022;BME280;2025;48.260;16.432;2022-08-23T03:43:42;99341.16;;;15.79;100.00
4022;BME280;2025;48.260;16.432;2022-08-23T03:46:09;99342.03;;;15.78;100.00
4022;BME280;2025;48.260;16.432;2022-08-23T03:48:47;99352.53;;;15.82;100.00
4022;BME280;2025;48.260;16.432;2022-08-23T03:51:15;99354.31;;;15.80;100.00
4022;BME280;2025;48.260;16.432;2022-08-23T03:53:42;99353.44;;;15.81;100.00
4022;BME280;2025;48.260;16.432;2022-08-23T03:56:11;99356.00;;;15.84;100.00
4022;BME280;2025;48.260;16.432;2022-08-23T03:58:48;99360.63;;;15.73;100.00
4022;BME280;2025;48.260;16.432;2022-08-23T04:01:15;99358.75;;;15.80;100.00
4022;BME280;2025;48.260;16.432;2022-08-23T04:03:42;99358.72;;;15.81;100.00
4022;BME280;2025;48.260;16.432;2022-08-23T04:06:10;99356.94;;;15.82;100.00
4022;BME280;2025;48.260;16.432;2022-08-23T04:08:37;99353.44;;;15.81;100.00
4022;BME280;2025;48.260;16.432;2022-08-23T04:11:04;99364.91;;;15.79;100.00
4022;BME280;2025;48.260;16.432;2022-08-23T04:13:32;99364.00;;;15.81;100.00
4022;BME280;2025;48.260;16.432;2022-08-23T04:16:01;99360.50;;;15.79;100.00
4022;BME280;2025;48.260;16.432;2022-08-23T04:18:30;99373.72;;;15.79;100.00
4022;BME280;2025;48.260;16.432;2022-08-23T04:20:58;99370.16;;;15.82;100.00
4022;BME280;2025;48.260;16.432;2022-08-23T04:23:27;99366.63;;;15.81;100.00
4022;BME280;2025;48.260;16.432;2022-08-23T04:25:54;99368.34;;;15.84;100.00
4022;BME280;2025;48.260;16.432;2022-08-23T04:28:22;99367.41;;;15.86;100.00
4022;BME280;2025;48.260;16.432;2022-08-23T04:30:50;99370.97;;;15.85;100.00
4022;BME280;2025;48.260;16.432;2022-08-23T04:33:19;99378.94;;;15.82;100.00
4022;BME280;2025;48.260;16.432;2022-08-23T04:35:46;99369.22;;;15.84;100.00
4022;BME280;2025;48.260;16.432;2022-08-23T04:38:13;99382.44;;;15.84;100.00
4022;BME280;2025;48.260;16.432;2022-08-23T04:40:41;99377.16;;;15.84;100.00
4022;BME280;2025;48.260;16.432;2022-08-23T04:43:26;99386.78;;;15.87;100.00
4022;BME280;2025;48.260;16.432;2022-08-23T04:45:53;99382.44;;;15.84;100.00
4022;BME280;2025;48.260;16.432;2022-08-23T04:48:22;99385.97;;;15.83;100.00
4022;BME280;2025;48.260;16.432;2022-08-23T04:50:49;99386.84;;;15.84;100.00
4022;BME280;2025;48.260;16.432;2022-08-23T04:53:16;99386.00;;;15.82;100.00
4022;BME280;2025;48.260;16.432;2022-08-23T04:55:44;99394.72;;;15.85;100.00
4022;BME280;2025;48.260;16.432;2022-08-23T04:58:11;99397.34;;;15.87;100.00
4022;BME280;2025;48.260;16.432;2022-08-23T05:00:38;99394.66;;;15.90;100.00
4022;BME280;2025;48.260;16.432;2022-08-23T05:03:05;99386.78;;;15.87;100.00
4022;BME280;2025;48.260;16.432;2022-08-23T05:05:34;99387.59;;;15.90;100.00
4022;BME280;2025;48.260;16.432;2022-08-23T05:08:03;99396.38;;;15.92;100.00
4022;BME280;2025;48.260;16.432;2022-08-23T05:10:30;99388.44;;;15.92;100.00
4022;BME280;2025;48.260;16.432;2022-08-23T05:12:57;99397.16;;;15.97;100.00
4022;BME280;2025;48.260;16.432;2022-08-23T05:15:24;99403.34;;;15.96;100.00
4022;BME280;2025;48.260;16.432;2022-08-23T05:17:51;99407.59;;;16.03;100.00
4022;BME280;2025;48.260;16.432;2022-08-23T05:20:18;99413.78;;;16.02;100.00
4022;BME280;2025;48.260;16.432;2022-08-23T05:22:47;99412.84;;;16.05;100.00
4022;BME280;2025;48.260;16.432;2022-08-23T05:25:15;99413.72;;;16.06;100.00
4022;BME280;2025;48.260;16.432;2022-08-23T05:27:42;99412.88;;;16.03;100.00
4022;BME280;2025;48.260;16.432;2022-08-23T05:30:09;99412.81;;;16.07;100.00
4022;BME280;2025;48.260;16.432;2022-08-23T05:32:36;99424.25;;;16.09;100.00
4022;BME280;2025;48.260;16.432;2022-08-23T05:35:05;99422.47;;;16.09;100.00
4022;BME280;2025;48.260;16.432;2022-08-23T05:37:32;99418.94;;;16.09;100.00
4022;BME280;2025;48.260;16.432;2022-08-23T05:40:01;99429.44;;;16.13;100.00
4022;BME280;2025;48.260;16.432;2022-08-23T05:42:28;99436.56;;;16.10;100.00
4022;BME280;2025;48.260;16.432;2022-08-23T05:44:55;99434.81;;;16.09;100.00
4022;BME280;2025;48.260;16.432;2022-08-23T05:47:22;99437.47;;;16.09;100.00
4022;BME280;2025;48.260;16.432;2022-08-23T05:49:51;99447.13;;;16.10;100.00
4022;BME280;2025;48.260;16.432;2022-08-23T05:52:18;99454.97;;;16.14;100.00
4022;BME280;2025;48.260;16.432;2022-08-23T05:54:45;99448.81;;;16.14;100.00
4022;BME280;2025;48.260;16.432;2022-08-23T05:57:14;99440.03;;;16.12;100.00
4022;BME280;2025;48.260;16.432;2022-08-23T05:59:41;99440.97;;;16.09;100.00
4022;BME280;2025;48.260;16.432;2022-08-23T06:02:08;99447.91;;;16.15;100.00
4022;BME280;2025;48.260;16.432;2022-08-23T06:04:35;99451.44;;;16.15;100.00
4022;BME280;2025;48.260;16.432;2022-08-23T06:07:02;99454.94;;;16.16;100.00
4022;BME280;2025;48.260;16.432;2022-08-23T06:09:31;99448.75;;;16.17;100.00
4022;BME280;2025;48.260;16.432;2022-08-23T06:11:58;99447.88;;;16.16;100.00
4022;BME280;2025;48.260;16.432;2022-08-23T06:14:27;99451.31;;;16.21;100.00
4022;BME280;2025;48.260;16.432;2022-08-23T06:16:54;99448.63;;;16.23;100.00
4022;BME280;2025;48.260;16.432;2022-08-23T06:19:21;99453.88;;;16.26;100.00
4022;BME280;2025;48.260;16.432;2022-08-23T06:21:49;99445.94;;;16.26;100.00
4022;BME280;2025;48.260;16.432;2022-08-23T06:24:17;99451.19;;;16.27;100.00
4022;BME280;2025;48.260;16.432;2022-08-23T06:26:44;99456.41;;;16.30;100.00
4022;BME280;2025;48.260;16.432;2022-08-23T06:29:13;99458.09;;;16.34;100.00
4022;BME280;2025;48.260;16.432;2022-08-23T06:31:44;99458.91;;;16.38;100.00
4022;BME280;2025;48.260;16.432;2022-08-23T06:34:17;99458.06;;;16.36;100.00
4022;BME280;2025;48.260;16.432;2022-08-23T06:36:45;99455.44;;;16.36;100.00
4022;BME280;2025;48.260;16.432;2022-08-23T06:39:13;99456.22;;;16.41;100.00
4022;BME280;2025;48.260;16.432;2022-08-23T06:41:40;99459.69;;;16.43;100.00
4022;BME280;2025;48.260;16.432;2022-08-23T06:44:07;99457.00;;;16.46;100.00
4022;BME280;2025;48.260;16.432;2022-08-23T06:46:35;99461.34;;;16.49;100.00
4022;BME280;2025;48.260;16.432;2022-08-23T06:49:05;99457.75;;;16.53;100.00
4022;BME280;2025;48.260;16.432;2022-08-23T06:51:34;99463.91;;;16.53;100.00
4022;BME280;2025;48.260;16.432;2022-08-23T06:54:05;99461.38;;;16.47;100.00
4022;BME280;2025;48.260;16.432;2022-08-23T06:56:33;99462.19;;;16.51;100.00
4022;BME280;2025;48.260;16.432;2022-08-23T06:59:00;99462.03;;;16.58;100.00
4022;BME280;2025;48.260;16.432;2022-08-23T07:01:32;99469.00;;;16.62;100.00
4022;BME280;2025;48.260;16.432;2022-08-23T07:04:04;99461.06;;;16.62;100.00
4022;BME280;2025;48.260;16.432;2022-08-23T07:06:32;99469.72;;;16.72;100.00
4022;BME280;2025;48.260;16.432;2022-08-23T07:09:00;99479.41;;;16.72;100.00
4022;BME280;2025;48.260;16.432;2022-08-23T07:11:27;99471.25;;;16.82;100.00
4022;BME280;2025;48.260;16.432;2022-08-23T07:13:56;99472.06;;;16.86;100.00
4022;BME280;2025;48.260;16.432;2022-08-23T07:16:24;99476.34;;;16.91;100.00
4022;BME280;2025;48.260;16.432;2022-08-23T07:18:51;99478.91;;;16.96;100.00
4022;BME280;2025;48.260;16.432;2022-08-23T07:21:21;99491.94;;;17.05;100.00
4022;BME280;2025;48.260;16.432;2022-08-23T07:23:48;99492.78;;;17.07;100.00
4022;BME280;2025;48.260;16.432;2022-08-23T07:26:16;99502.34;;;17.13;100.00
4022;BME280;2025;48.260;16.432;2022-08-23T07:28:44;99505.03;;;17.11;100.00
4022;BME280;2025;48.260;16.432;2022-08-23T07:31:14;99495.16;;;17.19;100.00
4022;BME280;2025;48.260;16.432;2022-08-23T07:33:41;99503.75;;;17.29;100.00
4022;BME280;2025;48.260;16.432;2022-08-23T07:36:11;99520.53;;;17.28;100.00
4022;BME280;2025;48.260;16.432;2022-08-23T07:38:40;99508.09;;;17.31;100.00
4022;BME280;2025;48.260;16.432;2022-08-23T07:41:07;99538.16;;;17.30;100.00
4022;BME280;2025;48.260;16.432;2022-08-23T07:43:34;99530.00;;;17.41;100.00
4022;BME280;2025;48.260;16.432;2022-08-23T07:46:02;99552.19;;;17.36;100.00
4022;BME280;2025;48.260;16.432;2022-08-23T07:48:30;99543.44;;;17.30;100.00
4022;BME280;2025;48.260;16.432;2022-08-23T07:51:00;99545.00;;;17.41;100.00
4022;BME280;2025;48.260;16.432;2022-08-23T07:53:28;99545.00;;;17.41;100.00
4022;BME280;2025;48.260;16.432;2022-08-23T07:55:56;99552.03;;;17.43;100.00
4022;BME280;2025;48.260;16.432;2022-08-23T07:58:24;99560.75;;;17.47;100.00
4022;BME280;2025;48.260;16.432;2022-08-23T08:00:52;99571.22;;;17.53;100.00
4022;BME280;2025;48.260;16.432;2022-08-23T08:03:20;99565.78;;;17.59;100.00
4022;BME280;2025;48.260;16.432;2022-08-23T08:05:47;99577.81;;;17.75;100.00
4022;BME280;2025;48.260;16.432;2022-08-23T08:08:14;99572.28;;;17.84;100.00
4022;BME280;2025;48.260;16.432;2022-08-23T08:10:42;99573.72;;;17.98;100.00
4022;BME280;2025;48.260;16.432;2022-08-23T08:13:10;99599.03;;;18.11;100.00
4022;BME280;2025;48.260;16.432;2022-08-23T08:15:40;99599.78;;;18.16;100.00
4022;BME280;2025;48.260;16.432;2022-08-23T08:18:08;99616.50;;;18.19;100.00
4022;BME280;2025;48.260;16.432;2022-08-23T08:20:36;99598.00;;;18.16;100.00
4022;BME280;2025;48.260;16.432;2022-08-23T08:23:03;99628.94;;;18.17;100.00
4022;BME280;2025;48.260;16.432;2022-08-23T08:25:32;99637.78;;;18.16;100.00
4022;BME280;2025;48.260;16.432;2022-08-23T08:28:00;99634.16;;;18.20;100.00
4022;BME280;2025;48.260;16.432;2022-08-23T08:30:28;99651.00;;;18.18;100.00
4022;BME280;2025;48.260;16.432;2022-08-23T08:32:55;99638.44;;;18.26;100.00
4022;BME280;2025;48.260;16.432;2022-08-23T08:35:22;99642.06;;;18.22;100.00
4022;BME280;2025;48.260;16.432;2022-08-23T08:37:49;99644.13;;;18.11;100.00
4022;BME280;2025;48.260;16.432;2022-08-23T08:40:21;99656.53;;;18.09;100.00
4022;BME280;2025;48.260;16.432;2022-08-23T08:43:04;99681.44;;;18.02;100.00
4022;BME280;2025;48.260;16.432;2022-08-23T08:45:44;99677.06;;;18.01;100.00
4022;BME280;2025;48.260;16.432;2022-08-23T08:48:15;99677.22;;;17.93;100.00
4022;BME280;2025;48.260;16.432;2022-08-23T08:50:50;99645.56;;;17.87;100.00
4022;BME280;2025;48.260;16.432;2022-08-23T08:53:23;99680.84;;;17.89;100.00
4022;BME280;2025;48.260;16.432;2022-08-23T08:55:53;99668.47;;;17.89;100.00
4022;BME280;2025;48.260;16.432;2022-08-23T08:58:27;99672.78;;;17.93;100.00
4022;BME280;2025;48.260;16.432;2022-08-23T09:00:57;99680.72;;;17.95;100.00
4022;BME280;2025;48.260;16.432;2022-08-23T09:03:28;99688.69;;;17.93;100.00
4022;BME280;2025;48.260;16.432;2022-08-23T09:06:01;99683.31;;;17.97;100.00
4022;BME280;2025;48.260;16.432;2022-08-23T09:08:39;99700.19;;;17.94;100.00
4022;BME280;2025;48.260;16.432;2022-08-23T09:11:15;99670.09;;;17.95;100.00
4022;BME280;2025;48.260;16.432;2022-08-23T09:16:49;99695.69;;;17.98;100.00
4022;BME280;2025;48.260;16.432;2022-08-23T09:19:18;99706.28;;;17.98;100.00
4022;BME280;2025;48.260;16.432;2022-08-23T09:21:47;99721.31;;;17.97;100.00
4022;BME280;2025;48.260;16.432;2022-08-23T09:24:15;99709.78;;;18.00;100.00
4022;BME280;2025;48.260;16.432;2022-08-23T09:26:42;99716.81;;;18.01;100.00
4022;BME280;2025;48.260;16.432;2022-08-23T09:29:19;99729.03;;;18.08;100.00
4022;BME280;2025;48.260;16.432;2022-08-23T09:31:50;99727.91;;;18.18;100.00
4022;BME280;2025;48.260;16.432;2022-08-23T09:34:20;99744.75;;;18.15;100.00
4022;BME280;2025;48.260;16.432;2022-08-23T09:36:48;99748.22;;;18.19;100.00
4022;BME280;2025;48.260;16.432;2022-08-23T09:39:28;99744.69;;;18.18;100.00
4022;BME280;2025;48.260;16.432;2022-08-23T09:41:56;99742.72;;;18.28;100.00
4022;BME280;2025;48.260;16.432;2022-08-23T09:44:35;99739.81;;;18.39;100.00
4022;BME280;2025;48.260;16.432;2022-08-23T09:47:09;99756.53;;;18.42;100.00
4022;BME280;2025;48.260;16.432;2022-08-23T09:49:38;99754.56;;;18.50;100.00
4022;BME280;2025;48.260;16.432;2022-08-23T09:52:24;99766.91;;;18.51;100.00
4022;BME280;2025;48.260;16.432;2022-08-23T09:54:56;99762.38;;;18.56;100.00
4022;BME280;2025;48.260;16.432;2022-08-23T09:57:27;99774.94;;;18.48;100.00
4022;BME280;2025;48.260;16.432;2022-08-23T09:59:59;99783.69;;;18.53;100.00
4022;BME280;2025;48.260;16.432;2022-08-23T10:02:32;99788.34;;;18.42;100.00
4022;BME280;2025;48.260;16.432;2022-08-23T10:05:02;99790.28;;;18.36;100.00
4022;BME280;2025;48.260;16.432;2022-08-23T10:07:35;99792.72;;;18.45;100.00
4022;BME280;2025;48.260;16.432;2022-08-23T10:10:20;99794.28;;;18.53;100.00
4022;BME280;2025;48.260;16.432;2022-08-23T10:12:49;99800.50;;;18.52;100.00
4022;BME280;2025;48.260;16.432;2022-08-23T10:15:17;99800.50;;;18.52;100.00
4022;BME280;2025;48.260;16.432;2022-08-23T10:17:50;99798.63;;;18.57;100.00
4022;BME280;2025;48.260;16.432;2022-08-23T10:20:28;99796.88;;;18.56;100.00
4022;BME280;2025;48.260;16.432;2022-08-23T10:23:13;99806.41;;;18.67;100.00
4022;BME280;2025;48.260;16.432;2022-08-23T10:25:47;99806.94;;;18.81;100.00
4022;BME280;2025;48.260;16.432;2022-08-23T10:28:27;99807.69;;;18.86;100.00
4022;BME280;2025;48.260;16.432;2022-08-23T10:31:24;99796.91;;;18.94;100.00
4022;BME280;2025;48.260;16.432;2022-08-23T10:34:15;99801.19;;;18.99;100.00
4022;BME280;2025;48.260;16.432;2022-08-23T10:36:59;99799.19;;;19.09;100.00
4022;BME280;2025;48.260;16.432;2022-08-23T10:39:31;99799.34;;;19.01;100.00
4022;BME280;2025;48.260;16.432;2022-08-23T10:42:03;99804.53;;;19.07;100.00
4022;BME280;2025;48.260;16.432;2022-08-23T10:44:34;99811.13;;;18.91;100.00
4022;BME280;2025;48.260;16.432;2022-08-23T10:47:17;99802.34;;;18.87;100.00
4022;BME280;2025;48.260;16.432;2022-08-23T10:49:53;99801.34;;;18.93;100.00
4022;BME280;2025;48.260;16.432;2022-08-23T10:52:25;99794.88;;;19.03;100.00
4022;BME280;2025;48.260;16.432;2022-08-23T10:54:57;99807.81;;;19.18;100.00
4022;BME280;2025;48.260;16.432;2022-08-23T10:57:31;99806.03;;;19.53;100.00
4022;BME280;2025;48.260;16.432;2022-08-23T11:00:01;99806.06;;;19.84;100.00
4022;BME280;2025;48.260;16.432;2022-08-23T11:02:35;99803.75;;;20.03;100.00
4022;BME280;2025;48.260;16.432;2022-08-23T11:05:21;99814.16;;;20.10;100.00
4022;BME280;2025;48.260;16.432;2022-08-23T11:07:59;99807.47;;;20.27;100.00
4022;BME280;2025;48.260;16.432;2022-08-23T11:10:31;99815.97;;;20.67;100.00
4022;BME280;2025;48.260;16.432;2022-08-23T11:13:01;99813.97;;;21.30;100.00
4022;BME280;2025;48.260;16.432;2022-08-23T11:15:37;99808.06;;;21.71;100.00
4022;BME280;2025;48.260;16.432;2022-08-23T11:18:09;99804.91;;;21.60;100.00
4022;BME280;2025;48.260;16.432;2022-08-23T11:23:41;99818.25;;;21.07;100.00
4022;BME280;2025;48.260;16.432;2022-08-23T11:26:59;99820.81;;;21.10;100.00
4022;BME280;2025;48.260;16.432;2022-08-23T11:29:27;99816.06;;;21.47;100.00
4022;BME280;2025;48.260;16.432;2022-08-23T11:32:01;99821.06;;;21.03;100.00
4022;BME280;2025;48.260;16.432;2022-08-23T11:34:34;99814.59;;;21.38;100.00
4022;BME280;2025;48.260;16.432;2022-08-23T11:37:25;99805.25;;;21.99;100.00
4022;BME280;2025;48.260;16.432;2022-08-23T11:40:05;99811.66;;;22.19;100.00
4022;BME280;2025;48.260;16.432;2022-08-23T11:42:46;99810.63;;;23.33;100.00
4022;BME280;2025;48.260;16.432;2022-08-23T11:45:27;99800.28;;;23.46;100.00
4022;BME280;2025;48.260;16.432;2022-08-23T11:48:12;99811.59;;;22.67;100.00
4022;BME280;2025;48.260;16.432;2022-08-23T11:51:07;99804.00;;;22.33;100.00
4022;BME280;2025;48.260;16.432;2022-08-23T11:54:04;99809.66;;;21.52;100.00
4022;BME280;2025;48.260;16.432;2022-08-23T11:56:59;99819.31;;;21.80;100.00
4022;BME280;2025;48.260;16.432;2022-08-23T11:59:41;99818.75;;;21.95;100.00
4022;BME280;2025;48.260;16.432;2022-08-23T12:02:34;99830.41;;;21.92;100.00
4022;BME280;2025;48.260;16.432;2022-08-23T12:05:20;99822.06;;;21.53;100.00
4022;BME280;2025;48.260;16.432;2022-08-23T12:08:27;99834.88;;;21.42;100.00
4022;BME280;2025;48.260;16.432;2022-08-23T12:11:08;99830.97;;;21.52;100.00
4022;BME280;2025;48.260;16.432;2022-08-23T12:13:51;99837.69;;;21.37;100.00
4022;BME280;2025;48.260;16.432;2022-08-23T12:16:34;99835.75;;;21.42;100.00
4022;BME280;2025;48.260;16.432;2022-08-23T12:19:06;99835.41;;;21.27;100.00
4022;BME280;2025;48.260;16.432;2022-08-23T12:21:45;99844.94;;;21.34;100.00
4022;BME280;2025;48.260;16.432;2022-08-23T12:24:21;99837.63;;;21.65;100.00
4022;BME280;2025;48.260;16.432;2022-08-23T12:26:59;99826.13;;;22.36;100.00
4022;BME280;2025;48.260;16.432;2022-08-23T12:29:36;99823.91;;;23.15;100.00
4022;BME280;2025;48.260;16.432;2022-08-23T12:32:10;99833.31;;;24.25;100.00
4022;BME280;2025;48.260;16.432;2022-08-23T12:34:55;99837.25;;;24.57;100.00
4022;BME280;2025;48.260;16.432;2022-08-23T12:37:33;99835.94;;;24.28;100.00
4022;BME280;2025;48.260;16.432;2022-08-23T12:40:06;99843.72;;;23.73;100.00
4022;BME280;2025;48.260;16.432;2022-08-23T12:42:37;99842.19;;;23.03;100.00
4022;BME280;2025;48.260;16.432;2022-08-23T12:45:09;99837.09;;;22.97;100.00
4022;BME280;2025;48.260;16.432;2022-08-23T12:47:38;99836.50;;;22.67;100.00
4022;BME280;2025;48.260;16.432;2022-08-23T12:50:19;99832.00;;;21.98;100.00
4022;BME280;2025;48.260;16.432;2022-08-23T12:52:55;99841.47;;;21.57;100.00
4022;BME280;2025;48.260;16.432;2022-08-23T12:55:23;99842.66;;;21.48;100.00
4022;BME280;2025;48.260;16.432;2022-08-23T12:57:52;99853.28;;;21.23;100.00
4022;BME280;2025;48.260;16.432;2022-08-23T13:00:23;99838.03;;;21.00;100.00
4022;BME280;2025;48.260;16.432;2022-08-23T13:02:55;99847.81;;;21.28;100.00
4022;BME280;2025;48.260;16.432;2022-08-23T13:05:35;99848.00;;;21.48;100.00
4022;BME280;2025;48.260;16.432;2022-08-23T13:08:06;99844.50;;;21.20;100.00
4022;BME280;2025;48.260;16.432;2022-08-23T13:10:35;99847.38;;;21.40;100.00
4022;BME280;2025;48.260;16.432;2022-08-23T13:13:03;99847.59;;;21.34;100.00
4022;BME280;2025;48.260;16.432;2022-08-23T13:15:49;99854.56;;;21.38;100.00
4022;BME280;2025;48.260;16.432;2022-08-23T13:18:31;99847.97;;;21.23;100.00
4022;BME280;2025;48.260;16.432;2022-08-23T13:21:25;99847.03;;;21.24;100.00
4022;BME280;2025;48.260;16.432;2022-08-23T13:23:54;99847.59;;;21.34;100.00
4022;BME280;2025;48.260;16.432;2022-08-23T13:26:26;99839.47;;;21.63;100.00
4022;BME280;2025;48.260;16.432;2022-08-23T13:29:02;99844.59;;;21.69;100.00